Time;durP1;ratioP1;P1;durP2;ratioP2;P2;SDS_P1;SDS_P2;PMS_P1;PMS_P2;Temp;Humidity;BMP_temperature;BMP_pressure;BME280_temperature;BME280_humidity;BME280_pressure;Samples;Min_cycle;Max_cycle;Signal;HPM_P1;HPM_P2
2022/11/21 00:00:48;;;;;;;0.95;0.93;;;-0.40;99.90;;;;;;5111110;28;20034;-76
2022/11/21 00:03:14;;;;;;;1.25;1.25;;;;;;;;;;5111488;28;20024;-76
2022/11/21 00:05:47;;;;;;;1.08;1.08;;;-0.40;99.90;;;;;;5111366;28;20493;-77
2022/11/21 00:08:15;;;;;;;0.30;0.30;;;-0.50;99.90;;;;;;5111345;28;20554;-77
2022/11/21 00:10:41;;;;;;;2.25;1.55;;;-0.40;99.90;;;;;;5110966;28;20046;-76
2022/11/21 00:13:11;;;;;;;0.40;0.40;;;-0.40;99.90;;;;;;5110422;28;20145;-77
2022/11/21 00:15:36;;;;;;;0.40;0.40;;;-0.30;99.90;;;;;;5111291;28;20035;-77
2022/11/21 00:18:03;;;;;;;0.40;0.40;;;-0.40;99.90;;;;;;5109788;28;20020;-76
2022/11/21 00:20:29;;;;;;;;;;;-0.40;99.90;;;;;;5111100;28;20038;-77
2022/11/21 00:22:54;;;;;;;0.57;0.57;;;-0.40;99.90;;;;;;5110207;28;19907;-76
2022/11/21 00:25:20;;;;;;;0.40;0.40;;;-0.50;99.90;;;;;;5110560;28;20528;-76
2022/11/21 00:27:46;;;;;;;0.60;0.60;;;-0.20;99.90;;;;;;5110602;28;20375;-78
2022/11/21 00:30:12;;;;;;;1.60;1.47;;;-0.50;99.90;;;;;;5109211;28;20123;-77
2022/11/21 00:32:38;;;;;;;0.40;0.40;;;-0.60;99.90;;;;;;5110631;28;20471;-76
2022/11/21 00:35:04;;;;;;;0.40;0.40;;;-0.50;99.90;;;;;;5109207;28;20467;-77
2022/11/21 00:37:33;;;;;;;1.13;1.13;;;-0.20;99.90;;;;;;5110030;28;20039;-76
2022/11/21 00:39:59;;;;;;;0.40;0.40;;;-0.20;99.90;;;;;;5110141;28;20076;-77
2022/11/21 00:42:25;;;;;;;0.97;0.97;;;-0.70;99.90;;;;;;5110188;28;20063;-78
2022/11/21 00:44:51;;;;;;;0.50;0.50;;;-0.30;99.90;;;;;;5110504;28;20538;-75
2022/11/21 00:47:17;;;;;;;1.90;1.80;;;-0.20;99.90;;;;;;5109024;28;20268;-76
2022/11/21 00:49:42;;;;;;;0.53;0.53;;;-0.50;99.90;;;;;;5110151;28;20047;-76
2022/11/21 00:52:08;;;;;;;0.50;0.50;;;-0.10;99.90;;;;;;5108631;28;20119;-76
2022/11/21 00:54:33;;;;;;;0.80;0.80;;;-0.60;99.90;;;;;;5110331;28;20038;-77
2022/11/21 00:56:59;;;;;;;0.70;0.70;;;-0.40;99.90;;;;;;5109158;28;20028;-76
2022/11/21 00:59:25;;;;;;;0.50;0.50;;;-0.20;99.90;;;;;;5108671;28;20035;-76
2022/11/21 01:01:50;;;;;;;1.10;1.10;;;-0.50;99.90;;;;;;5110355;28;20128;-77
2022/11/21 01:04:16;;;;;;;0.40;0.40;;;-0.50;99.90;;;;;;5110228;28;20383;-77
2022/11/21 01:06:42;;;;;;;0.50;0.50;;;;;;;;;;5109014;28;20055;-76
2022/11/21 01:09:07;;;;;;;0.60;0.60;;;-0.70;99.90;;;;;;5109643;28;20114;-76
2022/11/21 01:11:33;;;;;;;0.40;0.40;;;-0.50;99.90;;;;;;5110540;28;20027;-76
2022/11/21 01:13:59;;;;;;;0.40;0.40;;;-0.30;99.90;;;;;;5109421;28;20139;-76
2022/11/21 01:16:26;;;;;;;0.40;0.40;;;-0.20;99.90;;;;;;5107772;28;20364;-76
2022/11/21 01:18:52;;;;;;;0.50;0.50;;;-0.20;99.90;;;;;;5109894;28;20040;-76
2022/11/21 01:21:27;;;;;;;1.02;1.02;;;-0.40;99.90;;;;;;5110214;28;20023;-76
2022/11/21 01:23:53;;;;;;;0.40;0.40;;;-0.20;99.90;;;;;;5109509;28;20093;-76
2022/11/21 01:26:24;;;;;;;0.90;0.90;;;-0.50;99.90;;;;;;5110380;28;20024;-77
2022/11/21 01:28:50;;;;;;;1.80;1.70;;;-0.70;99.90;;;;;;5110379;28;20379;-76
2022/11/21 01:31:29;;;;;;;0.40;0.40;;;-0.20;99.90;;;;;;5110791;28;20434;-77
2022/11/21 01:33:59;;;;;;;0.40;0.40;;;-0.30;99.90;;;;;;5112653;28;20395;-77
2022/11/21 01:36:32;;;;;;;12.98;2.15;;;-0.40;99.90;;;;;;5114286;28;20042;-76
2022/11/21 01:39:01;;;;;;;3.20;1.10;;;-0.50;99.90;;;;;;5113295;28;20032;-76
2022/11/21 01:41:32;;;;;;;0.40;0.40;;;-0.60;99.90;;;;;;5113715;28;20411;-76
2022/11/21 01:43:59;;;;;;;0.65;0.65;;;-0.30;99.90;;;;;;5112391;28;20027;-76
2022/11/21 01:46:24;;;;;;;;;;;-0.40;99.90;;;;;;5114144;27;20032;-77
2022/11/21 01:49:02;;;;;;;1.65;1.55;;;-0.50;99.90;;;;;;5113444;28;20268;-76
2022/11/21 01:51:46;;;;;;;0.40;0.40;;;-0.30;99.90;;;;;;5113708;28;20063;-76
2022/11/21 01:54:40;;;;;;;0.30;0.30;;;-0.20;99.90;;;;;;5112083;28;20474;-76
2022/11/21 01:57:16;;;;;;;0.47;0.47;;;-0.20;99.90;;;;;;5112280;28;20031;-75
2022/11/21 01:59:55;;;;;;;0.95;0.95;;;0.30;99.90;;;;;;5113556;28;20363;-76
2022/11/21 02:02:24;;;;;;;0.60;0.60;;;-0.10;99.90;;;;;;5112859;28;20075;-77
2022/11/21 02:04:51;;;;;;;0.60;0.60;;;-0.60;99.90;;;;;;5112968;28;20346;-77
2022/11/21 02:07:20;;;;;;;0.50;0.50;;;-0.50;99.90;;;;;;5111772;28;20031;-76
2022/11/21 02:09:51;;;;;;;1.10;1.10;;;-0.40;99.90;;;;;;5112804;28;20071;-76
2022/11/21 02:12:28;;;;;;;0.63;0.63;;;-0.40;99.90;;;;;;5111901;28;20078;-76
2022/11/21 02:14:55;;;;;;;0.85;0.80;;;0.10;99.90;;;;;;5113136;28;20076;-76
2022/11/21 02:17:21;;;;;;;0.35;0.35;;;-0.30;99.90;;;;;;5111399;28;20558;-76
2022/11/21 02:19:59;;;;;;;0.40;0.40;;;-0.50;99.90;;;;;;5112788;28;20118;-76
2022/11/21 02:22:48;;;;;;;0.80;0.80;;;-0.10;99.90;;;;;;5113011;28;20280;-76
2022/11/21 02:25:35;;;;;;;0.30;0.30;;;-0.60;99.90;;;;;;5112606;28;20019;-76
2022/11/21 02:28:03;;;;;;;0.90;0.88;;;-0.50;99.90;;;;;;5112849;28;20015;-76
2022/11/21 02:30:30;;;;;;;0.60;0.60;;;-0.40;99.90;;;;;;5112754;28;20039;-77
2022/11/21 02:32:56;;;;;;;1.20;1.10;;;;;;;;;;5112509;28;20427;-76
2022/11/21 02:35:22;;;;;;;0.40;0.40;;;-0.40;99.90;;;;;;5111107;28;20066;-77
2022/11/21 02:37:57;;;;;;;1.05;1.05;;;-0.30;99.90;;;;;;5112741;28;20031;-77
2022/11/21 02:40:25;;;;;;;0.40;0.40;;;-0.60;99.90;;;;;;5110817;28;20036;-76
2022/11/21 02:43:15;;;;;;;0.63;0.63;;;-0.50;99.90;;;;;;5110199;28;20046;-76
2022/11/21 02:45:42;;;;;;;0.75;0.75;;;-0.40;99.90;;;;;;5111062;28;20059;-76
2022/11/21 02:48:08;;;;;;;1.00;1.00;;;-0.50;99.90;;;;;;5112499;28;20055;-77
2022/11/21 02:50:36;;;;;;;2.58;2.38;;;-0.30;99.90;;;;;;5111173;28;20048;-77
2022/11/21 02:53:04;;;;;;;0.30;0.30;;;-0.40;99.90;;;;;;5112293;28;20151;-76
2022/11/21 02:55:29;;;;;;;0.60;0.60;;;-0.70;99.90;;;;;;5111859;27;20423;-75
2022/11/21 02:57:55;;;;;;;0.40;0.40;;;-0.30;99.90;;;;;;5111999;28;20089;-76
2022/11/21 03:00:21;;;;;;;0.43;0.43;;;-0.30;99.90;;;;;;5111874;28;20027;-76
2022/11/21 03:02:47;;;;;;;0.55;0.55;;;-0.30;99.90;;;;;;5110920;28;20452;-76
2022/11/21 03:05:15;;;;;;;1.33;1.30;;;-0.20;99.90;;;;;;5112302;28;20024;-78
2022/11/21 03:07:41;;;;;;;0.50;0.50;;;-0.50;99.90;;;;;;5112274;28;20028;-76
2022/11/21 03:10:07;;;;;;;3.00;2.20;;;-0.20;99.90;;;;;;5110676;28;20642;-76
2022/11/21 03:12:40;;;;;;;1.23;1.23;;;-0.10;99.90;;;;;;5110900;28;20052;-76
2022/11/21 03:15:09;;;;;;;0.50;0.50;;;-0.20;99.90;;;;;;5110658;28;20038;-77
2022/11/21 03:17:34;;;;;;;1.08;1.08;;;-0.20;99.90;;;;;;5111834;28;20114;-77
2022/11/21 03:20:00;;;;;;;0.97;0.97;;;-0.20;99.90;;;;;;5112004;28;20328;-77
2022/11/21 03:22:26;;;;;;;1.10;1.10;;;-0.20;99.90;;;;;;5110368;28;20039;-77
2022/11/21 03:24:51;;;;;;;1.80;1.70;;;-0.20;99.90;;;;;;5111377;28;20459;-76
2022/11/21 03:27:17;;;;;;;0.40;0.40;;;-0.40;99.90;;;;;;5111975;28;20674;-76
2022/11/21 03:29:43;;;;;;;0.40;0.40;;;-0.20;99.90;;;;;;5111732;28;20494;-76
2022/11/21 03:32:09;;;;;;;1.08;1.08;;;0.00;99.90;;;;;;5112368;28;20106;-76
2022/11/21 03:34:34;;;;;;;0.40;0.40;;;0.60;99.90;;;;;;5111527;28;20538;-76
2022/11/21 03:37:00;;;;;;;1.05;1.05;;;-0.20;99.90;;;;;;5109934;28;20475;-77
2022/11/21 03:39:26;;;;;;;0.43;0.43;;;-0.20;99.90;;;;;;5109635;28;20035;-76
2022/11/21 03:41:51;;;;;;;0.77;0.77;;;-0.10;99.90;;;;;;5110380;28;20607;-77
2022/11/21 03:44:17;;;;;;;1.50;1.50;;;-0.20;99.90;;;;;;5110311;28;20031;-76
2022/11/21 03:46:44;;;;;;;0.60;0.60;;;-0.30;99.90;;;;;;5111662;28;20038;-77
2022/11/21 03:49:11;;;;;;;1.52;1.42;;;-0.20;99.90;;;;;;5110946;28;20056;-76
2022/11/21 03:51:37;;;;;;;;;;;-0.20;99.90;;;;;;5112127;28;20031;-77
2022/11/21 03:54:03;;;;;;;0.45;0.45;;;-0.10;99.90;;;;;;5110572;28;19912;-75
2022/11/21 03:56:29;;;;;;;0.40;0.40;;;-0.20;99.90;;;;;;5111382;28;20035;-76
2022/11/21 03:58:55;;;;;;;0.40;0.40;;;-0.10;99.90;;;;;;5111212;28;20054;-77
2022/11/21 04:01:21;;;;;;;0.40;0.40;;;-0.20;99.90;;;;;;5110058;28;20024;-76
2022/11/21 04:03:47;;;;;;;0.45;0.45;;;-0.20;99.90;;;;;;5111287;28;20136;-76
2022/11/21 04:06:14;;;;;;;0.73;0.73;;;-0.50;99.90;;;;;;5110003;28;20559;-76
2022/11/21 04:08:40;;;;;;;0.90;0.85;;;-0.20;99.90;;;;;;5111292;28;20256;-76
2022/11/21 04:11:06;;;;;;;0.47;0.47;;;-0.10;99.90;;;;;;5109183;28;20031;-76
2022/11/21 04:13:32;;;;;;;0.75;0.75;;;-0.20;99.90;;;;;;5110556;28;20119;-76
2022/11/21 04:15:57;;;;;;;1.13;1.13;;;-0.20;99.90;;;;;;5110981;28;20151;-76
2022/11/21 04:18:23;;;;;;;1.13;1.13;;;-0.20;99.90;;;;;;5111029;28;20049;-77
2022/11/21 04:20:57;;;;;;;0.50;0.50;;;-0.20;99.90;;;;;;5110698;28;20035;-76
2022/11/21 04:23:23;;;;;;;0.40;0.40;;;-0.20;99.90;;;;;;5110845;28;20256;-77
2022/11/21 04:25:49;;;;;;;0.57;0.57;;;-0.30;99.90;;;;;;5110760;28;20094;-77
2022/11/21 04:28:15;;;;;;;4.70;3.20;;;;;;;;;;5109242;28;20039;-74
2022/11/21 04:30:40;;;;;;;0.50;0.50;;;-0.20;99.90;;;;;;5110916;28;20032;-77
2022/11/21 04:33:06;;;;;;;1.90;1.80;;;-0.20;99.90;;;;;;5110489;28;20032;-76
2022/11/21 04:35:32;;;;;;;0.40;0.40;;;;;;;;;;5110458;28;20059;-77
2022/11/21 04:37:58;;;;;;;1.48;1.40;;;-0.10;99.90;;;;;;5110698;28;20036;-76
2022/11/21 04:40:23;;;;;;;0.67;0.67;;;-0.20;99.90;;;;;;5108861;28;20035;-76
2022/11/21 04:42:49;;;;;;;0.60;0.60;;;-0.20;99.90;;;;;;5109239;28;20032;-76
2022/11/21 04:45:16;;;;;;;0.87;0.87;;;-0.20;99.90;;;;;;5109334;28;20818;-77
2022/11/21 04:47:43;;;;;;;1.40;1.30;;;-0.10;99.90;;;;;;5110636;28;20024;-77
2022/11/21 04:50:11;;;;;;;0.40;0.40;;;-0.10;99.90;;;;;;5110340;28;20043;-76
2022/11/21 04:52:37;;;;;;;0.40;0.40;;;-0.10;99.90;;;;;;5108919;28;20075;-76
2022/11/21 04:55:03;;;;;;;0.57;0.57;;;0.00;99.90;;;;;;5108842;28;20542;-76
2022/11/21 04:57:30;;;;;;;0.45;0.45;;;-0.10;99.90;;;;;;5109841;28;20038;-76
2022/11/21 04:59:56;;;;;;;1.23;1.23;;;-0.10;99.90;;;;;;5109870;28;20527;-76
2022/11/21 05:02:22;;;;;;;1.52;1.48;;;;;;;;;;5110002;28;20023;-77
2022/11/21 05:04:48;;;;;;;1.00;0.95;;;0.00;99.90;;;;;;5109694;28;20061;-76
2022/11/21 05:07:13;;;;;;;1.33;1.33;;;-0.20;99.90;;;;;;5114443;28;20387;-77
2022/11/21 05:09:39;;;;;;;0.40;0.40;;;-0.10;99.90;;;;;;5114411;28;20032;-76
2022/11/21 05:14:49;;;;;;;2.70;2.47;;;0.00;99.90;;;;;;5114470;28;20038;-75
2022/11/21 05:17:14;;;;;;;0.80;0.80;;;0.00;99.90;;;;;;5113138;28;20027;-75
2022/11/21 05:19:40;;;;;;;0.50;0.50;;;0.00;99.90;;;;;;5113979;28;20036;-76
2022/11/21 05:22:06;;;;;;;0.90;0.90;;;0.00;99.90;;;;;;5114878;28;20364;-76
2022/11/21 05:24:31;;;;;;;0.90;0.90;;;0.10;99.90;;;;;;5112934;28;20530;-76
2022/11/21 05:26:57;;;;;;;1.67;1.57;;;-0.10;99.90;;;;;;5114267;28;20027;-77
2022/11/21 05:29:23;;;;;;;1.07;1.07;;;-0.10;99.90;;;;;;5113994;28;20040;-77
2022/11/21 05:31:48;;;;;;;0.87;0.87;;;-0.10;99.90;;;;;;5114469;28;20429;-77
2022/11/21 05:34:14;;;;;;;1.50;1.43;;;0.00;99.90;;;;;;5112571;28;20503;-77
2022/11/21 05:36:39;;;;;;;0.70;0.70;;;-0.10;99.90;;;;;;5114124;28;20047;-77
2022/11/21 05:39:05;;;;;;;3.80;3.50;;;0.00;99.90;;;;;;5113803;28;20040;-77
2022/11/21 05:41:31;;;;;;;2.67;2.50;;;-0.20;99.90;;;;;;5113696;28;20177;-76
2022/11/21 05:43:56;;;;;;;2.13;1.93;;;-0.10;99.90;;;;;;5113814;28;20032;-76
2022/11/21 05:46:24;;;;;;;1.50;1.40;;;0.00;99.90;;;;;;5114274;28;20031;-76
2022/11/21 05:48:51;;;;;;;0.70;0.70;;;0.00;99.90;;;;;;5112190;28;20044;-75
2022/11/21 05:51:17;;;;;;;0.95;0.95;;;0.00;99.90;;;;;;5113783;28;20351;-76
2022/11/21 05:53:44;;;;;;;1.05;1.02;;;0.00;99.90;;;;;;5113716;28;20023;-76
2022/11/21 05:56:16;;;;;;;0.60;0.60;;;0.10;99.90;;;;;;5113849;28;20055;-77
2022/11/21 05:58:42;;;;;;;0.93;0.93;;;0.10;99.90;;;;;;5111467;28;20027;-78
2022/11/21 06:01:09;;;;;;;0.90;0.90;;;0.10;99.90;;;;;;5113611;28;20379;-76
2022/11/21 06:03:38;;;;;;;0.80;0.80;;;0.10;99.90;;;;;;5113947;28;20451;-76
2022/11/21 06:06:08;;;;;;;0.75;0.75;;;0.20;99.90;;;;;;5113415;27;20022;-76
2022/11/21 06:08:39;;;;;;;1.02;1.02;;;0.10;99.90;;;;;;5113511;28;20032;-76
2022/11/21 06:11:10;;;;;;;0.30;0.30;;;0.20;99.90;;;;;;5111566;28;20071;-76
2022/11/21 06:13:36;;;;;;;1.42;1.38;;;0.50;99.90;;;;;;5112755;28;20051;-76
2022/11/21 06:16:11;;;;;;;0.40;0.40;;;0.20;99.90;;;;;;5113260;28;20066;-76
2022/11/21 06:18:44;;;;;;;0.40;0.40;;;0.20;99.90;;;;;;5112776;28;20035;-77
2022/11/21 06:21:24;;;;;;;1.45;1.42;;;0.40;99.90;;;;;;5112984;28;20131;-76
2022/11/21 06:23:52;;;;;;;1.67;1.58;;;0.20;99.90;;;;;;5111825;28;20111;-76
2022/11/21 06:26:21;;;;;;;1.42;1.33;;;0.20;99.90;;;;;;5111656;28;20031;-77
2022/11/21 06:28:47;;;;;;;2.83;1.40;;;0.20;99.90;;;;;;5111545;28;20032;-78
2022/11/21 06:31:18;;;;;;;0.57;0.57;;;0.30;99.90;;;;;;5113075;28;20483;-78
2022/11/21 06:33:45;;;;;;;1.75;1.65;;;0.20;99.90;;;;;;5113044;28;20054;-77
2022/11/21 06:36:11;;;;;;;0.52;0.52;;;;;;;;;;5112970;28;20096;-76
2022/11/21 06:38:37;;;;;;;0.40;0.40;;;0.10;99.90;;;;;;5112843;28;20028;-76
2022/11/21 06:41:23;;;;;;;1.53;1.43;;;0.20;99.90;;;;;;5112705;28;20383;-77
2022/11/21 06:43:48;;;;;;;1.00;1.00;;;0.20;99.90;;;;;;5112331;28;20049;-77
2022/11/21 06:46:15;;;;;;;1.23;1.13;;;0.30;99.90;;;;;;5112949;28;20100;-76
2022/11/21 06:48:41;;;;;;;0.60;0.60;;;0.00;99.90;;;;;;5112421;28;20058;-77
2022/11/21 06:51:18;;;;;;;2.05;1.95;;;0.10;99.90;;;;;;5110869;28;20070;-77
2022/11/21 06:53:44;;;;;;;1.70;1.55;;;0.20;99.90;;;;;;5111538;28;20077;-78
2022/11/21 06:56:10;;;;;;;1.05;1.05;;;0.20;99.90;;;;;;5112957;27;20027;-76
2022/11/21 06:58:36;;;;;;;0.60;0.60;;;1.10;99.90;;;;;;5111860;28;20046;-76
2022/11/21 07:01:09;;;;;;;0.77;0.77;;;0.40;99.90;;;;;;5112236;28;20043;-76
2022/11/21 07:03:35;;;;;;;1.02;1.02;;;0.30;99.90;;;;;;5110755;28;20073;-77
2022/11/21 07:06:01;;;;;;;0.52;0.52;;;0.70;99.90;;;;;;5112782;28;20031;-76
2022/11/21 07:08:28;;;;;;;1.73;1.60;;;0.40;99.90;;;;;;5111812;28;20042;-77
2022/11/21 07:10:54;;;;;;;0.85;0.85;;;0.40;99.90;;;;;;5112015;28;20027;-76
2022/11/21 07:13:23;;;;;;;0.90;0.90;;;0.40;99.90;;;;;;5111931;28;20114;-76
2022/11/21 07:15:51;;;;;;;1.95;1.85;;;0.40;99.90;;;;;;5110299;28;20031;-77
2022/11/21 07:18:18;;;;;;;2.13;1.95;;;0.40;99.90;;;;;;5111855;28;20023;-77
2022/11/21 07:20:43;;;;;;;4.47;2.25;;;0.40;99.90;;;;;;5111516;28;20038;-77
2022/11/21 07:23:09;;;;;;;0.50;0.50;;;0.60;99.90;;;;;;5111814;28;20024;-77
2022/11/21 07:25:35;;;;;;;0.60;0.60;;;0.50;99.90;;;;;;5112178;28;20027;-77
2022/11/21 07:28:02;;;;;;;0.85;0.85;;;0.90;99.90;;;;;;5111434;28;20254;-77
2022/11/21 07:30:28;;;;;;;;;;;0.50;99.90;;;;;;5111586;28;20132;-77
2022/11/21 07:32:58;;;;;;;1.27;1.27;;;0.50;99.90;;;;;;5110393;28;20338;-77
2022/11/21 07:35:24;;;;;;;0.50;0.50;;;0.50;99.90;;;;;;5111723;28;20032;-76
2022/11/21 07:37:50;;;;;;;1.27;1.27;;;0.60;99.90;;;;;;5110256;28;20442;-77
2022/11/21 07:40:15;;;;;;;0.45;0.45;;;0.50;99.90;;;;;;5110999;28;20047;-76
2022/11/21 07:42:41;;;;;;;0.50;0.50;;;0.80;99.90;;;;;;5111815;28;20093;-77
2022/11/21 07:45:08;;;;;;;1.03;1.03;;;0.50;99.90;;;;;;5111436;28;20024;-76
2022/11/21 07:47:33;;;;;;;1.27;1.27;;;0.60;99.90;;;;;;5110317;28;20024;-76
2022/11/21 07:49:59;;;;;;;1.97;1.87;;;0.50;99.90;;;;;;5110675;28;20051;-76
2022/11/21 07:52:24;;;;;;;1.73;1.70;;;0.30;99.90;;;;;;5110030;28;20039;-76
2022/11/21 07:54:50;;;;;;;0.70;0.70;;;0.50;99.90;;;;;;5109892;28;20349;-75
2022/11/21 07:57:16;;;;;;;3.92;3.08;;;0.50;99.90;;;;;;5111325;28;20047;-75
2022/11/21 07:59:43;;;;;;;0.68;0.68;;;0.50;99.90;;;;;;5111040;28;20050;-78
2022/11/21 08:02:18;;;;;;;0.45;0.45;;;0.50;99.90;;;;;;5109850;28;20563;-76
2022/11/21 08:04:43;;;;;;;0.50;0.50;;;1.10;99.90;;;;;;5110079;28;20100;-76
2022/11/21 08:07:09;;;;;;;0.60;0.60;;;0.60;99.90;;;;;;5111398;28;20035;-77
2022/11/21 08:09:35;;;;;;;0.80;0.80;;;0.60;99.90;;;;;;5110519;28;20040;-77
2022/11/21 08:12:00;;;;;;;1.43;1.33;;;0.60;99.90;;;;;;5111261;28;20035;-78
2022/11/21 08:14:26;;;;;;;1.10;1.10;;;0.40;99.90;;;;;;5110834;28;20050;-76
2022/11/21 08:16:52;;;;;;;0.40;0.40;;;0.50;99.90;;;;;;5109674;28;20164;-77
2022/11/21 08:19:17;;;;;;;0.40;0.40;;;0.20;99.90;;;;;;5109024;28;20040;-77
2022/11/21 08:21:43;;;;;;;1.60;1.52;;;0.70;99.90;;;;;;5111429;28;20034;-77
2022/11/21 08:24:13;;;;;;;0.80;0.77;;;0.30;99.90;;;;;;5110552;28;20039;-76
2022/11/21 08:26:39;;;;;;;0.75;0.75;;;0.60;99.90;;;;;;5109345;28;20024;-77
2022/11/21 08:29:06;;;;;;;0.85;0.85;;;0.60;99.90;;;;;;5110522;28;20550;-77
2022/11/21 08:31:31;;;;;;;1.15;1.15;;;0.60;99.90;;;;;;5110932;28;20063;-77
2022/11/21 08:33:57;;;;;;;1.47;1.43;;;1.20;99.90;;;;;;5110617;28;20649;-76
2022/11/21 08:36:23;;;;;;;0.53;0.53;;;0.60;99.90;;;;;;5109139;28;20034;-77
2022/11/21 08:38:48;;;;;;;1.20;1.20;;;0.60;99.90;;;;;;5109748;28;20059;-76
2022/11/21 08:43:58;;;;;;;0.30;0.30;;;0.60;99.90;;;;;;5110725;28;20039;-77
2022/11/21 08:46:26;;;;;;;0.50;0.50;;;0.70;99.90;;;;;;5108798;28;20035;-77
2022/11/21 08:48:53;;;;;;;0.50;0.50;;;0.60;99.90;;;;;;5110359;28;20171;-77
2022/11/21 08:51:21;;;;;;;0.50;0.50;;;0.60;99.90;;;;;;5110626;28;20051;-75
2022/11/21 08:53:46;;;;;;;2.58;1.63;;;0.60;99.90;;;;;;5110712;28;20382;-76
2022/11/21 08:56:12;;;;;;;0.90;0.90;;;0.60;99.90;;;;;;5110727;28;20106;-75
2022/11/21 08:58:39;;;;;;;1.05;1.05;;;0.50;99.90;;;;;;5109965;28;20031;-77
2022/11/21 09:01:04;;;;;;;0.50;0.50;;;0.60;99.90;;;;;;5110476;28;20070;-76
2022/11/21 09:03:30;;;;;;;0.93;0.93;;;0.80;99.90;;;;;;5109027;28;20455;-76
2022/11/21 09:05:56;;;;;;;0.93;0.93;;;0.60;99.90;;;;;;5108684;28;20340;-77
2022/11/21 09:08:22;;;;;;;1.40;1.38;;;0.80;99.90;;;;;;5112463;28;20030;-67
2022/11/21 09:10:47;;;;;;;0.60;0.60;;;0.90;99.90;;;;;;5112219;28;20127;-69
2022/11/21 09:13:13;;;;;;;2.10;2.00;;;0.90;99.90;;;;;;5111920;28;20077;-69
2022/11/21 09:18:23;;;;;;;0.98;0.98;;;0.80;99.90;;;;;;5104774;28;20035;-70
2022/11/21 09:20:48;;;;;;;2.10;2.00;;;0.90;99.90;;;;;;5107203;28;20708;-70
2022/11/21 09:23:15;;;;;;;1.27;1.23;;;0.60;99.90;;;;;;5110228;28;20074;-71
2022/11/21 09:25:41;;;;;;;0.63;0.63;;;0.60;99.90;;;;;;5109679;28;20023;-70
2022/11/21 09:28:08;;;;;;;2.78;2.58;;;0.80;99.90;;;;;;5104685;28;20028;-69
2022/11/21 09:30:35;;;;;;;0.82;0.82;;;0.70;99.90;;;;;;5112669;28;20027;-69
2022/11/21 09:33:19;;;;;;;0.98;0.98;;;0.70;99.90;;;;;;5109191;28;20433;-70
2022/11/21 09:35:45;;;;;;;0.40;0.40;;;0.90;99.90;;;;;;5092751;28;20036;-70
2022/11/21 09:38:10;;;;;;;1.70;1.60;;;0.70;99.90;;;;;;5108498;28;20099;-68
2022/11/21 09:40:40;;;;;;;4.23;3.87;;;0.80;99.90;;;;;;5110109;28;20035;-68
2022/11/21 09:43:25;;;;;;;0.60;0.60;;;1.00;99.90;;;;;;5099665;28;20023;-70
2022/11/21 09:45:55;;;;;;;0.70;0.70;;;0.90;99.90;;;;;;5097362;28;20058;-68
2022/11/21 09:48:35;;;;;;;0.50;0.50;;;1.00;99.90;;;;;;5110714;28;20023;-70
2022/11/21 09:51:09;;;;;;;0.70;0.70;;;1.20;99.90;;;;;;5111113;28;20066;-70
2022/11/21 09:53:45;;;;;;;1.30;1.25;;;0.80;99.90;;;;;;5106910;28;20024;-69
2022/11/21 09:56:14;;;;;;;0.60;0.60;;;0.80;99.90;;;;;;5112408;27;20031;-68
2022/11/21 09:58:46;;;;;;;0.45;0.45;;;1.00;99.90;;;;;;5112057;28;20506;-67
2022/11/21 10:01:13;;;;;;;1.60;1.50;;;1.20;99.90;;;;;;5108972;28;20031;-68
2022/11/21 10:03:46;;;;;;;0.43;0.43;;;0.90;99.90;;;;;;5107467;28;20020;-68
2022/11/21 10:06:26;;;;;;;1.05;1.05;;;1.00;99.90;;;;;;5114642;28;20118;-69
2022/11/21 10:09:30;;;;;;;0.50;0.50;;;1.00;99.90;;;;;;5106779;28;20118;-69
2022/11/21 10:12:37;;;;;;;0.50;0.50;;;1.00;99.90;;;;;;5110044;28;20028;-69
2022/11/21 10:15:40;;;;;;;0.82;0.82;;;1.20;99.90;;;;;;5110423;28;20046;-69
2022/11/21 10:18:21;;;;;;;0.95;0.95;;;0.90;99.90;;;;;;5108286;28;20052;-69
2022/11/21 10:21:01;;;;;;;0.75;0.75;;;1.30;99.90;;;;;;5114354;28;20395;-66
2022/11/21 10:23:45;;;;;;;0.47;0.47;;;1.30;99.90;;;;;;5110510;28;20024;-68
2022/11/21 10:26:30;;;;;;;0.40;0.40;;;1.20;99.90;;;;;;5105997;28;20462;-67
2022/11/21 10:29:05;;;;;;;0.75;0.75;;;1.10;99.90;;;;;;5105877;28;20806;-69
2022/11/21 10:31:36;;;;;;;1.52;1.48;;;0.90;99.90;;;;;;5113285;27;20032;-67
2022/11/21 10:34:08;;;;;;;0.40;0.40;;;1.00;99.90;;;;;;5108367;28;20030;-68
2022/11/21 10:36:39;;;;;;;0.30;0.30;;;1.00;99.90;;;;;;5103755;28;20023;-68
2022/11/21 10:39:23;;;;;;;2.15;2.05;;;1.00;99.90;;;;;;5108211;28;20023;-69
2022/11/21 10:42:02;;;;;;;0.90;0.82;;;1.10;99.90;;;;;;5108749;28;20028;-67
2022/11/21 10:47:26;;;;;;;0.98;0.98;;;1.00;99.90;;;;;;5112388;28;20037;-69
2022/11/21 10:50:04;;;;;;;0.50;0.50;;;0.80;99.90;;;;;;5115099;28;20406;-67
2022/11/21 10:52:39;;;;;;;0.98;0.93;;;0.90;99.90;;;;;;5113420;28;20067;-67
2022/11/21 10:55:08;;;;;;;0.75;0.75;;;1.10;99.90;;;;;;5112680;28;20024;-68
2022/11/21 10:57:44;;;;;;;0.60;0.60;;;0.90;99.90;;;;;;5112731;28;20504;-69
2022/11/21 11:00:13;;;;;;;0.50;0.50;;;0.80;99.90;;;;;;5111427;28;20028;-67
2022/11/21 11:02:41;;;;;;;0.57;0.57;;;1.00;99.90;;;;;;5105553;28;20024;-69
2022/11/21 11:05:21;;;;;;;0.85;0.85;;;1.10;99.90;;;;;;5111874;27;20826;-68
2022/11/21 11:08:02;;;;;;;1.35;1.25;;;1.20;99.90;;;;;;5107873;28;20208;-68
2022/11/21 11:10:28;;;;;;;3.05;2.28;;;;;;;;;;5113359;28;20031;-69
2022/11/21 11:16:01;;;;;;;0.93;0.93;;;1.00;99.90;;;;;;5111538;27;20432;-70
2022/11/21 11:18:27;;;;;;;0.70;0.70;;;1.10;99.90;;;;;;5103129;28;20327;-68
2022/11/21 11:21:21;;;;;;;1.60;1.50;;;0.90;99.90;;;;;;5108547;27;20031;-67
2022/11/21 11:23:51;;;;;;;0.82;0.82;;;0.60;99.90;;;;;;5111317;28;20032;-68
2022/11/21 11:26:29;;;;;;;2.97;1.67;;;0.20;99.90;;;;;;5106644;28;20035;-68
2022/11/21 11:29:06;;;;;;;;;;;0.80;99.90;;;;;;5110157;28;20061;-67
2022/11/21 11:31:41;;;;;;;0.30;0.30;;;0.80;99.90;;;;;;5109695;28;19911;-67
2022/11/21 11:34:11;;;;;;;0.50;0.50;;;0.80;99.90;;;;;;5109246;28;20027;-69
2022/11/21 11:36:43;;;;;;;0.40;0.40;;;0.90;99.90;;;;;;5105275;27;20032;-69
2022/11/21 11:39:39;;;;;;;0.70;0.70;;;0.80;99.90;;;;;;5100999;28;20043;-68
2022/11/21 11:48:22;;;;;;;0.40;0.40;;;1.00;99.90;;;;;;5107405;28;20031;-67
2022/11/21 11:50:51;;;;;;;0.90;0.90;;;1.10;99.90;;;;;;5112408;28;20032;-69
2022/11/21 11:53:25;;;;;;;0.50;0.50;;;0.70;99.90;;;;;;5106892;28;20031;-67
2022/11/21 11:55:56;;;;;;;0.32;0.32;;;0.70;99.90;;;;;;5107206;28;20485;-69
2022/11/21 11:58:43;;;;;;;0.50;0.50;;;0.80;99.90;;;;;;5103914;28;20034;-70
2022/11/21 12:01:24;;;;;;;1.38;1.27;;;0.90;99.90;;;;;;5106223;28;20043;-67
2022/11/21 12:03:57;;;;;;;0.65;0.65;;;0.70;99.90;;;;;;5106652;28;20310;-68
2022/11/21 12:06:34;;;;;;;0.98;0.98;;;0.80;99.90;;;;;;5107605;28;20020;-69
2022/11/21 12:09:23;;;;;;;0.40;0.40;;;1.10;99.90;;;;;;5105208;28;20030;-69
2022/11/21 12:12:05;;;;;;;0.30;0.30;;;0.80;99.90;;;;;;5107864;28;20027;-69
2022/11/21 12:17:36;;;;;;;0.50;0.50;;;0.90;99.90;;;;;;5108611;28;20054;-68
2022/11/21 12:20:10;;;;;;;0.73;0.73;;;0.90;99.90;;;;;;5111364;28;20038;-69
2022/11/21 12:22:36;;;;;;;0.68;0.68;;;1.10;99.90;;;;;;5109003;28;20386;-68
2022/11/21 12:25:02;;;;;;;0.43;0.43;;;1.00;99.90;;;;;;5097450;28;20027;-70
2022/11/21 12:27:31;;;;;;;0.40;0.40;;;0.90;99.90;;;;;;5111584;28;20038;-69
2022/11/21 12:30:14;;;;;;;0.50;0.50;;;0.80;99.90;;;;;;5111500;28;20035;-69
2022/11/21 12:32:56;;;;;;;0.40;0.40;;;0.70;99.90;;;;;;5107794;28;20135;-69
2022/11/21 12:35:46;;;;;;;0.38;0.38;;;1.20;99.90;;;;;;5107870;28;20027;-70
2022/11/21 12:38:30;;;;;;;0.43;0.43;;;0.90;99.90;;;;;;5108733;28;20459;-69
2022/11/21 12:44:33;;;;;;;1.95;1.48;;;0.70;99.90;;;;;;5103037;28;20076;-70
2022/11/21 12:54:29;;;;;;;0.82;0.82;;;0.80;99.90;;;;;;5111946;28;20080;-70
2022/11/21 12:56:28;;;;;;;0.35;0.35;;;0.90;99.90;;;;;;5103869;28;20105;-67
2022/11/21 12:58:55;;;;;;;0.93;0.93;;;0.90;99.90;;;;;;5109879;28;20391;-69
2022/11/21 13:01:42;;;;;;;0.30;0.30;;;0.70;99.90;;;;;;5103308;28;20157;-69
2022/11/21 13:04:14;;;;;;;0.40;0.40;;;0.80;99.90;;;;;;5102101;28;20498;-69
2022/11/21 13:06:42;;;;;;;0.40;0.40;;;0.70;99.90;;;;;;5107933;28;20477;-67
2022/11/21 13:09:15;;;;;;;0.30;0.30;;;0.70;99.90;;;;;;5111083;28;20020;-70
2022/11/21 13:11:57;;;;;;;0.30;0.30;;;0.60;99.90;;;;;;5105091;28;20036;-68
2022/11/21 13:14:50;;;;;;;0.40;0.40;;;0.70;99.90;;;;;;5097551;28;20148;-70
2022/11/21 13:17:33;;;;;;;0.47;0.47;;;0.80;99.90;;;;;;5102369;28;20084;-67
2022/11/21 13:20:36;;;;;;;0.75;0.75;;;0.90;99.90;;;;;;5100297;28;20073;-67
2022/11/21 13:23:06;;;;;;;0.40;0.40;;;0.70;99.90;;;;;;5101155;28;20020;-70
2022/11/21 13:25:32;;;;;;;1.98;1.88;;;0.70;99.90;;;;;;5102688;28;20036;-69
2022/11/21 13:28:31;;;;;;;0.47;0.47;;;0.70;99.90;;;;;;5103919;28;20027;-69
2022/11/21 13:30:58;;;;;;;0.50;0.50;;;0.80;99.90;;;;;;5098493;28;20220;-69
2022/11/21 13:33:38;;;;;;;0.32;0.32;;;0.70;99.90;;;;;;5112728;28;20024;-70
2022/11/21 13:36:11;;;;;;;0.40;0.40;;;0.80;99.90;;;;;;5105603;28;20110;-67
2022/11/21 13:38:49;;;;;;;0.40;0.40;;;0.80;99.90;;;;;;5104329;28;20028;-66
2022/11/21 13:44:28;;;;;;;0.30;0.30;;;0.80;99.90;;;;;;5104578;28;20038;-66
2022/11/21 13:47:03;;;;;;;0.77;0.77;;;0.80;99.90;;;;;;5108507;28;20081;-68
2022/11/21 13:49:43;;;;;;;10.35;9.55;;;0.80;99.90;;;;;;5107711;28;20043;-66